Главная страница
METAR-TAF:

METAR-TAF

Аэропорты :

Дубай, Объединенные Арабские Эмираты

широта: 25-15-10N, долгота: 055-21-52E, высота над уровнем моря: 8 м

Текущие метеонаблюдения

Эта сводка был подготовлена 1 час и 4 минут назад, в 23:00 UTC
Ветер 6 Узел от восточно-юго-восточный
Температура 16°C
Влажность 63%
Давление 1018 hPa
Видимость 10 км и более
Нет облачности ниже 1500 м, и нет кучево-дождевой облачности

METAR: OMDB 172300Z 11006KT CAVOK 16/09 Q1018 NOSIG

Время: 04:04 (00:04 UTC)

Прогноз

Эта сводка был подготовлена 1 час и 1 минут назад, в 23:03 UTC
Прогноз действительный с 18-го 00 UTC до 19-го 06 UTC
Ветер 7 Узел от восточный
Видимость 10 км и более
Нет облачности ниже 1500 м, и нет кучево-дождевой облачности
изменения
С 18-го 11 UTC до 18-го 13 UTC
Ветер 10 Узел от северный
изменения
С 18-го 15 UTC до 18-го 17 UTC
Ветер 5 Узел от восточный

TAF: OMDB 172303Z 1800/1906 10007KT CAVOK BECMG 1811/1813 35010KT BECMG 1815/1817 10005KT

Метеонаблюдения и прогнозы для более 4000 аэропортов (сводки METAR и TAF).

Имеющиеся станции представлены на карте желтыми и красными точками.

Чтобы увидеть название станции, наведите на нее мышь.

Затем щелкните, чтобы увидеть метеонаблюдения и метеопрогнозы.

Управление картой: чтобы увеличить масштаб, щелкните зеленые кнопки с черным крестиком; чтобы уменьшить масштаб, щелкните зеленую кнопку с тире; для просмотра соседних карт щелкайте зеленые стрелки.


METAR-TAF: